Time;durP1;ratioP1;P1;durP2;ratioP2;P2;SDS_P1;SDS_P2;PMS_P1;PMS_P2;Temp;Humidity;BMP_temperature;BMP_pressure;BME280_temperature;BME280_humidity;BME280_pressure;Samples;Min_cycle;Max_cycle;Signal;HPM_P1;HPM_P2
2022/09/29 00:02:07;;;;;;;13.10;9.00;;;;;;;9.57;79.75;98579.98;130592;1267;108728;-82
2022/09/29 00:05:13;;;;;;;10.60;7.80;;;;;;;9.53;79.57;98587.61;130564;1268;107504;-82
2022/09/29 00:08:19;;;;;;;11.20;7.30;;;;;;;9.49;79.79;98587.52;130530;1267;108652;-82
2022/09/29 00:11:25;;;;;;;11.60;7.40;;;;;;;9.49;79.87;98587.35;130525;1268;109173;-81
2022/09/29 00:14:30;;;;;;;10.40;7.20;;;;;;;9.50;79.88;98583.08;130632;1268;108940;-81
2022/09/29 00:17:36;;;;;;;10.60;7.00;;;;;;;9.54;79.98;98585.09;130550;1268;108696;-82
2022/09/29 00:20:41;;;;;;;12.40;7.60;;;;;;;9.56;79.95;98587.65;130627;1267;108677;-82
2022/09/29 00:23:47;;;;;;;9.20;7.40;;;;;;;9.56;79.95;98593.84;130657;1267;108667;-81
2022/09/29 00:26:52;;;;;;;9.40;6.80;;;;;;;9.55;79.88;98592.80;130571;1267;108766;-82
2022/09/29 00:29:58;;;;;;;9.60;6.50;;;;;;;9.52;79.96;98594.98;130517;1267;108705;-82
2022/09/29 00:33:03;;;;;;;8.60;6.30;;;;;;;9.49;79.98;98592.65;130604;1268;108838;-81
2022/09/29 00:36:12;;;;;;;8.60;6.20;;;;;;;9.47;80.07;98592.54;130686;1268;109886;-81
2022/09/29 00:39:17;;;;;;;9.00;5.90;;;;;;;9.47;80.14;98590.77;130601;1267;108944;-81
2022/09/29 00:42:23;;;;;;;8.50;6.10;;;;;;;9.44;79.75;98588.95;130649;1267;108737;-81
2022/09/29 00:45:29;;;;;;;9.20;6.10;;;;;;;9.41;79.77;98598.17;130544;1268;108867;-81
2022/09/29 00:48:35;;;;;;;8.30;6.20;;;;;;;9.35;79.82;98600.52;130556;1267;108844;-82
2022/09/29 00:51:43;;;;;;;7.70;6.10;;;;;;;9.26;79.65;98599.43;130594;1267;108893;-80
2022/09/29 00:54:53;;;;;;;8.70;6.00;;;;;;;9.18;79.90;98604.88;130610;1267;108744;-81
2022/09/29 00:58:03;;;;;;;7.90;5.30;;;;;;;9.10;79.85;98609.11;130629;1267;108959;-84
2022/09/29 01:01:09;;;;;;;6.60;4.80;;;;;;;9.01;79.86;98605.98;130573;1267;108701;-84
2022/09/29 01:04:18;;;;;;;7.60;5.40;;;;;;;8.95;79.82;98610.76;130542;1268;108489;-81
2022/09/29 01:07:25;;;;;;;7.80;5.60;;;;;;;8.90;79.70;98621.92;130544;1267;107804;-81
2022/09/29 01:10:30;;;;;;;13.60;5.40;;;;;;;8.84;79.64;98628.42;130700;1267;109161;-83
2022/09/29 01:13:37;;;;;;;7.30;5.60;;;;;;;8.82;79.74;98627.83;130615;1267;107039;-81
2022/09/29 01:16:43;;;;;;;9.90;6.00;;;;;;;8.75;79.48;98630.02;130546;1267;109223;-82
2022/09/29 01:20:02;;;;;;;7.70;5.70;;;;;;;8.65;79.44;98630.27;130583;1267;108653;-82
2022/09/29 01:23:37;;;;;;;7.60;5.90;;;;;;;8.53;79.39;98628.85;130566;1267;107096;-83
2022/09/29 01:27:00;;;;;;;7.10;5.00;;;;;;;8.44;79.54;98629.11;130519;1266;108946;-81
2022/09/29 01:30:18;;;;;;;7.60;5.00;;;;;;;8.39;79.73;98634.20;130607;1267;108768;-86
2022/09/29 01:33:33;;;;;;;7.90;5.10;;;;;;;8.37;79.81;98637.67;130649;1268;108819;-87
2022/09/29 01:36:49;;;;;;;6.90;5.00;;;;;;;8.39;79.74;98642.16;130680;1267;108672;-84
2022/09/29 01:40:02;;;;;;;6.60;5.00;;;;;;;8.39;79.80;98649.40;130662;1267;106688;-84
2022/09/29 01:43:13;;;;;;;6.90;4.90;;;;;;;8.39;79.69;98652.23;130671;1267;107133;-84
2022/09/29 01:46:23;;;;;;;6.20;5.30;;;;;;;8.41;79.74;98662.00;130586;1267;107763;-82
2022/09/29 01:49:33;;;;;;;6.80;5.20;;;;;;;8.43;79.71;98667.42;130483;1268;108896;-82
2022/09/29 01:52:45;;;;;;;7.30;5.20;;;;;;;8.47;79.92;98666.61;130633;1267;108928;-80
2022/09/29 01:55:51;;;;;;;;;;;;;;;8.49;80.12;98659.29;130480;1267;109222;-84
2022/09/29 01:59:02;;;;;;;8.70;4.80;;;;;;;8.52;80.19;98672.73;130547;1267;108841;-83
2022/09/29 02:02:12;;;;;;;6.70;4.40;;;;;;;8.57;80.21;98676.94;130764;1267;108829;-80
2022/09/29 02:05:21;;;;;;;6.60;5.30;;;;;;;8.66;80.41;98666.77;130547;1267;108688;-82
2022/09/29 02:08:33;;;;;;;6.40;4.90;;;;;;;8.75;80.42;98658.89;130572;1266;108746;-81
2022/09/29 02:11:41;;;;;;;6.90;5.00;;;;;;;8.83;80.28;98662.41;130493;1267;108901;-79
2022/09/29 02:14:50;;;;;;;7.40;5.50;;;;;;;8.89;80.37;98656.56;130605;1267;107652;-79
2022/09/29 02:18:01;;;;;;;7.50;6.00;;;;;;;8.93;80.23;98668.64;130686;1268;109153;-79
2022/09/29 02:21:07;;;;;;;7.00;4.70;;;;;;;8.96;80.35;98682.74;130483;1267;108701;-76
2022/09/29 02:24:14;;;;;;;5.90;4.70;;;;;;;8.99;80.45;98691.02;130422;1267;108752;-75
2022/09/29 02:27:19;;;;;;;7.00;5.40;;;;;;;9.01;80.48;98691.96;130452;1268;108749;-76
2022/09/29 02:30:25;;;;;;;6.60;5.10;;;;;;;9.07;80.49;98695.64;130521;1268;108910;-76
2022/09/29 02:33:30;;;;;;;8.30;5.80;;;;;;;9.09;80.48;98700.55;130276;1268;106837;-76
2022/09/29 02:36:47;;;;;;;6.90;5.70;;;;;;;9.09;80.19;98699.96;130409;1267;108786;-77
2022/09/29 02:40:02;;;;;;;6.50;5.30;;;;;;;9.08;80.23;98699.25;130379;1268;108937;-78
2022/09/29 02:43:42;;;;;;;7.90;5.70;;;;;;;9.06;80.30;98693.25;130485;1268;108678;-79
2022/09/29 02:47:03;;;;;;;6.80;5.20;;;;;;;9.03;80.36;98692.81;130348;1268;108703;-77
2022/09/29 02:50:31;;;;;;;8.00;4.90;;;;;;;9.06;80.40;98698.38;130412;1268;108689;-77
2022/09/29 02:53:52;;;;;;;6.90;5.30;;;;;;;9.11;80.50;98707.05;130367;1267;109149;-78
2022/09/29 02:57:08;;;;;;;6.80;5.10;;;;;;;9.16;80.40;98713.50;130683;1268;108778;-79
2022/09/29 03:00:16;;;;;;;6.80;5.60;;;;;;;9.19;80.21;98720.06;130386;1268;108979;-79
2022/09/29 03:03:23;;;;;;;6.50;5.60;;;;;;;9.19;80.26;98720.59;130419;1268;108796;-79
2022/09/29 03:06:28;;;;;;;6.30;5.60;;;;;;;9.17;80.04;98713.64;130534;1267;107672;-79
2022/09/29 03:09:34;;;;;;;6.90;5.50;;;;;;;9.11;80.29;98723.91;130465;1268;108759;-80
2022/09/29 03:12:39;;;;;;;7.00;5.80;;;;;;;9.07;80.22;98722.78;130462;1268;108841;-79
2022/09/29 03:15:45;;;;;;;6.30;4.60;;;;;;;9.03;80.32;98724.11;130391;1268;107757;-80
2022/09/29 03:18:50;;;;;;;6.30;4.40;;;;;;;9.01;80.19;98725.05;130364;1267;109860;-79
2022/09/29 03:21:55;;;;;;;6.40;5.40;;;;;;;9.01;80.07;98722.33;130430;1267;108834;-79
2022/09/29 03:25:01;;;;;;;9.30;6.10;;;;;;;9.00;80.23;98723.50;130394;1267;108721;-79
2022/09/29 03:28:06;;;;;;;6.90;5.90;;;;;;;9.01;80.18;98722.94;130483;1268;108724;-79
2022/09/29 03:31:12;;;;;;;8.60;6.00;;;;;;;9.02;80.11;98723.93;130362;1267;107679;-79
2022/09/29 03:34:17;;;;;;;7.70;6.10;;;;;;;8.99;79.97;98719.35;130566;1268;108659;-79
2022/09/29 03:37:22;;;;;;;7.20;6.10;;;;;;;8.96;80.10;98730.76;130295;1268;108748;-78
2022/09/29 03:40:28;;;;;;;9.50;6.40;;;;;;;8.92;80.15;98728.04;130429;1268;107709;-78
2022/09/29 03:43:34;;;;;;;6.60;5.80;;;;;;;8.87;80.08;98722.09;130299;1267;108824;-80
2022/09/29 03:46:39;;;;;;;6.60;5.10;;;;;;;8.81;80.11;98722.09;130375;1268;108484;-79
2022/09/29 03:49:45;;;;;;;6.80;5.10;;;;;;;8.72;79.96;98725.91;130409;1267;108757;-79
2022/09/29 03:52:50;;;;;;;6.80;5.70;;;;;;;8.66;80.06;98723.47;130359;1267;108874;-79
2022/09/29 03:55:55;;;;;;;7.50;6.20;;;;;;;8.62;80.05;98726.15;130343;1268;108822;-79
2022/09/29 03:59:02;;;;;;;6.90;5.80;;;;;;;8.59;80.19;98730.46;130514;1267;108942;-79
2022/09/29 04:02:08;;;;;;;7.10;6.30;;;;;;;8.55;80.05;98738.13;130612;1268;107754;-80
2022/09/29 04:05:13;;;;;;;8.10;6.00;;;;;;;8.50;79.86;98740.04;130464;1268;108722;-78
2022/09/29 04:08:19;;;;;;;7.10;6.30;;;;;;;8.45;79.82;98743.56;130515;1268;108774;-79
2022/09/29 04:11:24;;;;;;;9.80;6.30;;;;;;;8.39;79.99;98745.85;130317;1268;108856;-78
2022/09/29 04:14:30;;;;;;;7.70;6.00;;;;;;;8.30;79.68;98746.22;130527;1267;108890;-78
2022/09/29 04:17:35;;;;;;;6.80;5.20;;;;;;;8.21;79.89;98750.89;130363;1267;108748;-79
2022/09/29 04:20:41;;;;;;;7.10;5.20;;;;;;;8.14;79.88;98753.98;130375;1267;108685;-79
2022/09/29 04:23:47;;;;;;;8.80;5.90;;;;;;;8.11;79.81;98757.55;130423;1267;108557;-79
2022/09/29 04:26:52;;;;;;;7.10;6.00;;;;;;;8.10;80.01;98758.91;130548;1268;109114;-78
2022/09/29 04:29:58;;;;;;;6.30;5.30;;;;;;;8.08;79.88;98760.69;130559;1268;108825;-79
2022/09/29 04:33:03;;;;;;;9.90;6.10;;;;;;;8.10;79.89;98760.84;130543;1267;108880;-80
2022/09/29 04:36:09;;;;;;;6.60;5.50;;;;;;;8.13;79.89;98761.59;130542;1268;108641;-79
2022/09/29 04:39:14;;;;;;;9.00;6.00;;;;;;;8.16;80.16;98757.65;130531;1268;108861;-78
2022/09/29 04:42:20;;;;;;;14.90;10.40;;;;;;;8.20;79.93;98765.14;130706;1267;108999;-77
2022/09/29 04:45:26;;;;;;;73.20;30.40;;;;;;;8.23;79.89;98769.23;130440;1267;108689;-79
2022/09/29 04:48:31;;;;;;;214.80;113.60;;;;;;;8.22;80.40;98768.08;130509;1267;107592;-79
2022/09/29 04:51:37;;;;;;;118.30;79.50;;;;;;;8.28;80.42;98784.63;130450;1268;108723;-77
2022/09/29 04:54:44;;;;;;;81.70;60.70;;;;;;;8.38;80.59;98786.20;130510;1268;108677;-78
2022/09/29 04:57:50;;;;;;;28.40;22.50;;;;;;;8.48;80.61;98782.41;130623;1268;108869;-78
2022/09/29 05:00:55;;;;;;;89.40;55.90;;;;;;;8.56;80.66;98786.29;130528;1268;108773;-77
2022/09/29 05:04:01;;;;;;;252.10;176.00;;;;;;;8.59;80.69;98792.61;130579;1267;108819;-77
2022/09/29 05:07:07;;;;;;;166.10;103.00;;;;;;;8.63;80.77;98798.33;130599;1268;108961;-78
2022/09/29 05:10:12;;;;;;;172.60;105.40;;;;;;;8.65;80.56;98799.25;130535;1268;108847;-78
2022/09/29 05:13:18;;;;;;;86.40;56.00;;;;;;;8.66;80.56;98796.66;130418;1267;108787;-78
2022/09/29 05:16:23;;;;;;;144.60;92.50;;;;;;;8.68;80.78;98801.80;130486;1268;108734;-77
2022/09/29 05:19:30;;;;;;;123.00;84.80;;;;;;;8.76;80.65;98800.45;130545;1267;108823;-81
2022/09/29 05:22:37;;;;;;;64.10;45.90;;;;;;;8.83;80.68;98802.85;130453;1267;108754;-82
2022/09/29 05:25:42;;;;;;;107.00;84.10;;;;;;;8.87;80.60;98801.02;130642;1267;108952;-79
2022/09/29 05:28:48;;;;;;;154.60;116.00;;;;;;;8.85;80.53;98805.46;130641;1268;109049;-79
2022/09/29 05:31:54;;;;;;;112.40;74.00;;;;;;;8.82;80.67;98806.68;130493;1267;108736;-79
2022/09/29 05:35:00;;;;;;;114.20;79.70;;;;;;;8.81;80.68;98806.86;130738;1267;108948;-79
2022/09/29 05:38:06;;;;;;;61.00;38.10;;;;;;;8.79;80.72;98808.46;130526;1267;108701;-79
2022/09/29 05:41:13;;;;;;;69.10;42.00;;;;;;;8.77;80.88;98812.80;130455;1267;108732;-80
2022/09/29 05:44:18;;;;;;;282.20;160.20;;;;;;;8.85;80.79;98818.96;130601;1268;108677;-80
2022/09/29 05:47:23;;;;;;;43.00;24.80;;;;;;;8.94;80.83;98819.14;130604;1267;108678;-81
2022/09/29 05:50:31;;;;;;;188.10;108.80;;;;;;;9.02;80.60;98818.06;130675;1267;108987;-79
2022/09/29 05:53:37;;;;;;;80.50;46.50;;;;;;;9.06;80.68;98824.73;130499;1268;108773;-81
2022/09/29 05:56:42;;;;;;;193.20;154.50;;;;;;;9.11;80.74;98830.67;130515;1267;107623;-80
2022/09/29 05:59:47;;;;;;;525.60;293.80;;;;;;;9.16;80.62;98840.59;130601;1267;108538;-81
2022/09/29 06:02:53;;;;;;;577.30;357.40;;;;;;;9.16;80.51;98842.63;130562;1268;109001;-81
2022/09/29 06:05:58;;;;;;;592.70;358.30;;;;;;;9.14;80.77;98841.31;130501;1268;108786;-81
2022/09/29 06:09:04;;;;;;;219.50;118.80;;;;;;;9.15;80.73;98840.16;130506;1267;109379;-81
2022/09/29 06:12:10;;;;;;;462.70;288.80;;;;;;;9.24;80.91;98846.20;130446;1268;108665;-80
2022/09/29 06:15:15;;;;;;;265.50;144.10;;;;;;;9.37;80.98;98856.34;130627;1268;108853;-80
2022/09/29 06:18:20;;;;;;;189.30;108.80;;;;;;;9.49;81.04;98854.61;130625;1266;108694;-80
2022/09/29 06:21:27;;;;;;;58.50;33.80;;;;;;;9.58;80.68;98852.28;130618;1268;107568;-80
2022/09/29 06:24:33;;;;;;;36.90;25.30;;;;;;;9.63;80.72;98852.61;130488;1267;108845;-81
2022/09/29 06:27:38;;;;;;;21.50;16.90;;;;;;;9.68;80.74;98854.86;130542;1268;108701;-81
2022/09/29 06:30:44;;;;;;;307.10;165.50;;;;;;;9.74;80.43;98858.72;130687;1268;108836;-81
2022/09/29 06:33:49;;;;;;;25.70;17.70;;;;;;;9.78;80.54;98862.95;130490;1267;108686;-81
2022/09/29 06:40:20;;;;;;;14.80;11.50;;;;;;;9.84;80.06;98861.84;130418;1268;108943;-81
2022/09/29 06:43:26;;;;;;;18.10;13.40;;;;;;;9.88;80.41;98866.38;130559;1266;108634;-81
2022/09/29 06:46:31;;;;;;;14.70;11.90;;;;;;;9.98;80.48;98865.30;130542;1267;108723;-81
2022/09/29 06:49:37;;;;;;;12.40;10.60;;;;;;;10.10;80.54;98863.93;130481;1268;108304;-81
2022/09/29 06:52:43;;;;;;;14.10;12.10;;;;;;;10.15;80.25;98868.64;130541;1268;108862;-81
2022/09/29 06:55:55;;;;;;;31.60;24.60;;;;;;;10.20;80.00;98871.55;130461;1268;108873;-81
2022/09/29 06:58:59;;;;;;;;;;;;;;;10.26;80.39;98871.91;130571;1268;109144;-80
2022/09/29 07:02:04;;;;;;;40.90;26.40;;;;;;;10.29;79.78;98878.91;130473;1268;107456;-81
2022/09/29 07:05:10;;;;;;;26.20;19.20;;;;;;;10.33;79.87;98877.48;130525;1268;109755;-81
2022/09/29 07:08:16;;;;;;;15.20;11.80;;;;;;;10.45;79.85;98873.61;130459;1267;108776;-81
2022/09/29 07:11:21;;;;;;;19.40;16.20;;;;;;;10.47;79.23;98874.42;130407;1268;108613;-81
2022/09/29 07:14:26;;;;;;;15.30;12.90;;;;;;;10.39;79.56;98880.76;130469;1268;108883;-81
2022/09/29 07:17:32;;;;;;;14.80;10.70;;;;;;;10.37;79.16;98881.63;130652;1267;108862;-80
2022/09/29 07:20:38;;;;;;;14.60;11.00;;;;;;;10.28;78.39;98884.34;130448;1268;108912;-81
2022/09/29 07:23:44;;;;;;;15.00;13.20;;;;;;;10.25;79.00;98890.52;130492;1268;108720;-81
2022/09/29 07:26:50;;;;;;;11.20;9.50;;;;;;;10.39;79.34;98891.55;130556;1268;108952;-81
2022/09/29 07:29:55;;;;;;;12.10;10.50;;;;;;;10.37;78.85;98899.57;130497;1268;109036;-81
2022/09/29 07:33:01;;;;;;;12.10;8.80;;;;;;;10.34;78.30;98900.31;130437;1268;108333;-82
2022/09/29 07:36:07;;;;;;;13.90;10.30;;;;;;;10.28;78.43;98903.68;130459;1268;109072;-81
2022/09/29 07:39:13;;;;;;;10.80;8.90;;;;;;;10.41;78.56;98905.20;130464;1268;108972;-81
2022/09/29 07:42:20;;;;;;;14.80;11.60;;;;;;;10.54;78.64;98911.42;130489;1267;107669;-79
2022/09/29 07:45:33;;;;;;;10.60;9.00;;;;;;;10.80;78.96;98911.09;130503;1267;108803;-79
2022/09/29 07:48:39;;;;;;;12.00;10.40;;;;;;;11.08;78.65;98917.19;130330;1268;108795;-79
2022/09/29 07:51:45;;;;;;;10.70;9.20;;;;;;;11.31;78.66;98917.83;130479;1268;108524;-80
2022/09/29 07:54:50;;;;;;;11.60;9.10;;;;;;;11.55;77.87;98917.31;130337;1268;109167;-79
2022/09/29 07:57:56;;;;;;;9.70;8.70;;;;;;;11.60;77.57;98916.73;130391;1268;108874;-80
2022/09/29 08:01:04;;;;;;;10.50;9.40;;;;;;;11.72;77.85;98918.84;130572;1267;107447;-79
2022/09/29 08:04:09;;;;;;;9.60;8.50;;;;;;;12.01;78.09;98927.59;130342;1268;107701;-79
2022/09/29 08:07:15;;;;;;;9.60;7.80;;;;;;;12.29;77.51;98929.52;130325;1268;108768;-79
2022/09/29 08:10:20;;;;;;;8.80;7.90;;;;;;;12.21;74.91;98929.35;130405;1268;108873;-79
2022/09/29 08:13:26;;;;;;;7.50;6.70;;;;;;;12.15;77.12;98931.41;130331;1267;108757;-78
2022/09/29 08:16:32;;;;;;;6.50;5.80;;;;;;;12.42;77.34;98931.80;130306;1268;108689;-79
2022/09/29 08:19:37;;;;;;;7.50;6.70;;;;;;;12.71;76.73;98931.14;130359;1268;108821;-79
2022/09/29 08:22:42;;;;;;;8.00;7.20;;;;;;;12.77;75.51;98930.73;130479;1268;108714;-79
2022/09/29 08:25:48;;;;;;;8.60;6.90;;;;;;;12.65;75.38;98935.71;130353;1268;108927;-79
2022/09/29 08:28:53;;;;;;;9.10;7.90;;;;;;;12.66;75.79;98937.86;130439;1268;108676;-79
2022/09/29 08:31:58;;;;;;;8.10;7.30;;;;;;;12.57;74.63;98948.15;130365;1268;109385;-79
2022/09/29 08:35:04;;;;;;;9.30;7.50;;;;;;;12.51;75.09;98951.70;130319;1268;108710;-80
2022/09/29 08:38:09;;;;;;;11.90;7.40;;;;;;;12.50;75.77;98956.58;130385;1268;109008;-79
2022/09/29 08:41:28;;;;;;;9.40;8.40;;;;;;;12.57;74.48;98962.92;130388;1268;108766;-79
2022/09/29 08:44:40;;;;;;;9.30;8.00;;;;;;;12.44;74.54;98967.17;130426;1268;108910;-79
2022/09/29 08:47:49;;;;;;;10.20;9.10;;;;;;;12.41;73.78;98967.73;130463;1268;107726;-78
2022/09/29 08:50:58;;;;;;;9.70;8.70;;;;;;;12.28;74.28;98970.95;130418;1268;108868;-79
2022/09/29 08:54:13;;;;;;;9.20;8.30;;;;;;;12.16;74.44;98974.98;130412;1268;109349;-79
2022/09/29 08:57:20;;;;;;;12.00;9.50;;;;;;;11.99;74.47;98978.17;130409;1268;108824;-79
2022/09/29 09:00:39;;;;;;;9.50;8.50;;;;;;;11.80;74.64;98972.45;130503;1267;108620;-78
2022/09/29 09:04:11;;;;;;;10.90;8.90;;;;;;;11.69;74.96;98968.19;130372;1268;108665;-79
2022/09/29 09:07:26;;;;;;;9.30;7.90;;;;;;;11.57;75.00;98965.03;130297;1268;108711;-79
2022/09/29 09:10:45;;;;;;;12.00;9.90;;;;;;;11.57;75.37;98968.62;130406;1268;108790;-79
2022/09/29 09:14:06;;;;;;;13.10;11.70;;;;;;;11.78;74.87;98974.02;130420;1268;108745;-79
2022/09/29 09:17:25;;;;;;;13.70;12.30;;;;;;;11.91;74.64;98981.48;130396;1267;108546;-79
2022/09/29 09:20:35;;;;;;;12.60;11.10;;;;;;;11.82;74.54;98980.73;130366;1268;107387;-78
2022/09/29 09:23:51;;;;;;;12.20;10.90;;;;;;;11.80;74.87;98978.86;130490;1268;107077;-78
2022/09/29 09:26:58;;;;;;;12.30;11.00;;;;;;;11.88;74.25;98982.55;130458;1268;108713;-81
2022/09/29 09:30:13;;;;;;;11.70;10.10;;;;;;;11.95;74.95;98977.97;130547;1267;109908;-79
2022/09/29 09:33:27;;;;;;;10.90;9.70;;;;;;;12.37;75.41;98978.74;130458;1268;108682;-78
2022/09/29 09:36:37;;;;;;;11.60;10.40;;;;;;;12.57;73.89;98983.63;130394;1268;108689;-79
2022/09/29 09:39:48;;;;;;;10.70;9.60;;;;;;;12.33;73.35;98988.55;130420;1268;108821;-79
2022/09/29 09:43:02;;;;;;;7.80;7.00;;;;;;;12.08;74.33;98994.38;130347;1268;107454;-79
2022/09/29 09:46:14;;;;;;;7.30;6.50;;;;;;;12.11;74.71;98992.64;130434;1268;109009;-78
2022/09/29 09:49:25;;;;;;;7.90;7.10;;;;;;;12.25;74.58;98993.34;130351;1268;108747;-79
2022/09/29 09:52:39;;;;;;;10.50;9.00;;;;;;;12.30;73.92;98996.18;130461;1268;108605;-79
2022/09/29 09:55:50;;;;;;;11.20;9.90;;;;;;;12.20;73.61;98999.11;130329;1268;108727;-78
2022/09/29 09:59:16;;;;;;;12.10;10.90;;;;;;;11.92;73.15;99005.91;130458;1268;108906;-79
2022/09/29 10:02:23;;;;;;;11.70;10.10;;;;;;;11.59;74.03;99010.06;130309;1268;108796;-78
2022/09/29 10:05:36;;;;;;;11.20;9.70;;;;;;;11.54;74.65;99017.77;130313;1268;108828;-79
2022/09/29 10:08:42;;;;;;;10.60;9.50;;;;;;;11.53;74.00;99020.70;130411;1268;107711;-79
2022/09/29 10:11:48;;;;;;;8.30;7.20;;;;;;;11.63;74.54;99024.63;130491;1268;108784;-79
2022/09/29 10:14:59;;;;;;;7.90;7.10;;;;;;;11.80;73.64;99025.60;130489;1268;108687;-79
2022/09/29 10:18:15;;;;;;;6.90;6.20;;;;;;;11.87;73.98;99026.34;130576;1268;108137;-79
2022/09/29 10:21:35;;;;;;;7.40;6.70;;;;;;;12.10;73.95;99022.44;130498;1268;108774;-81
2022/09/29 10:24:40;;;;;;;7.70;6.90;;;;;;;12.32;73.69;99021.22;130378;1268;108714;-78
2022/09/29 10:27:49;;;;;;;9.20;7.40;;;;;;;12.45;73.48;99017.14;130423;1268;108736;-78
2022/09/29 10:30:55;;;;;;;8.00;7.10;;;;;;;12.60;73.73;99021.98;130462;1268;108671;-79
2022/09/29 10:34:13;;;;;;;12.10;10.50;;;;;;;12.81;72.88;99019.88;130427;1268;108665;-80
2022/09/29 10:37:24;;;;;;;8.40;7.40;;;;;;;12.72;71.92;99018.30;130452;1268;108857;-79
2022/09/29 10:40:30;;;;;;;8.30;7.20;;;;;;;12.60;70.86;99025.15;130521;1268;108904;-79
2022/09/29 10:43:40;;;;;;;7.90;7.10;;;;;;;12.52;71.93;99022.59;130428;1268;108606;-79
2022/09/29 10:46:56;;;;;;;5.70;5.20;;;;;;;12.45;71.38;99027.04;130488;1268;108626;-79
2022/09/29 10:50:19;;;;;;;7.40;5.00;;;;;;;12.44;72.20;99026.69;130466;1268;108795;-79
2022/09/29 10:53:35;;;;;;;5.70;5.20;;;;;;;12.58;72.19;99029.30;130435;1268;106415;-79
2022/09/29 10:56:48;;;;;;;5.00;4.50;;;;;;;12.79;70.89;99027.23;130168;1268;274882;-79
2022/09/29 10:59:55;;;;;;;4.90;3.80;;;;;;;12.97;71.11;99026.67;130490;1268;108865;-79
2022/09/29 11:03:08;;;;;;;4.50;4.10;;;;;;;13.26;71.58;99027.09;130544;1268;108789;-79
2022/09/29 11:06:15;;;;;;;6.10;5.50;;;;;;;13.50;71.05;99030.40;130452;1267;108795;-79
2022/09/29 11:09:36;;;;;;;7.10;6.30;;;;;;;13.50;69.73;99032.54;130447;1268;108854;-79
2022/09/29 11:12:41;;;;;;;7.40;6.60;;;;;;;13.66;71.24;99032.98;130411;1268;108151;-78
2022/09/29 11:15:47;;;;;;;7.60;6.80;;;;;;;13.99;71.27;99030.60;130450;1268;108834;-78
2022/09/29 11:18:56;;;;;;;13.90;12.50;;;;;;;14.26;71.48;99027.55;130570;1268;107375;-79
2022/09/29 11:22:20;;;;;;;9.30;8.40;;;;;;;14.53;70.70;99027.38;130479;1268;108707;-81
2022/09/29 11:25:58;;;;;;;8.20;7.40;;;;;;;14.49;67.21;99033.23;130394;1268;108605;-79
2022/09/29 11:29:28;;;;;;;7.70;6.90;;;;;;;14.36;70.09;99035.64;130457;1268;108786;-79
2022/09/29 11:32:46;;;;;;;6.40;5.70;;;;;;;14.61;70.01;99029.27;130442;1268;108605;-79
2022/09/29 11:35:58;;;;;;;6.10;5.50;;;;;;;14.80;70.02;99026.59;130400;1268;108768;-79
2022/09/29 11:39:16;;;;;;;6.70;6.00;;;;;;;14.95;70.00;99026.79;130446;1268;108886;-79
2022/09/29 11:42:40;;;;;;;6.60;5.80;;;;;;;14.97;68.23;99028.65;130517;1267;107568;-79
2022/09/29 11:45:53;;;;;;;5.90;5.30;;;;;;;14.79;67.31;99030.07;130471;1268;108657;-79
2022/09/29 11:49:25;;;;;;;5.40;4.90;;;;;;;14.70;67.32;99026.00;130486;1268;108819;-79
2022/09/29 11:52:38;;;;;;;;;;;;;;;14.76;68.65;99024.33;130473;1267;108924;-79
2022/09/29 11:56:06;;;;;;;4.90;4.50;;;;;;;14.83;68.36;99027.16;130409;1268;108960;-79
2022/09/29 11:59:54;;;;;;;6.20;5.10;;;;;;;15.09;68.26;99028.68;130439;1268;108970;-80
2022/09/29 12:03:24;;;;;;;4.70;4.30;;;;;;;15.10;65.23;99032.13;130166;1267;108681;-80
2022/09/29 12:06:52;;;;;;;4.00;3.60;;;;;;;14.98;66.32;99036.45;130447;1268;108534;-79
2022/09/29 12:10:16;;;;;;;4.60;3.80;;;;;;;14.96;65.62;99035.11;130459;1267;108717;-79
2022/09/29 12:13:37;;;;;;;4.10;3.60;;;;;;;14.95;67.23;99037.42;130469;1267;108821;-80
2022/09/29 12:16:51;;;;;;;4.00;3.30;;;;;;;15.23;67.39;99035.13;130508;1268;108896;-80
2022/09/29 12:20:02;;;;;;;4.30;2.80;;;;;;;15.51;66.92;99033.91;130619;1268;109673;-80
2022/09/29 12:23:16;;;;;;;4.90;3.00;;;;;;;15.74;65.72;99035.54;130432;1268;108640;-80
2022/09/29 12:26:24;;;;;;;3.40;3.10;;;;;;;15.82;65.56;99036.79;130396;1268;108693;-80
2022/09/29 12:29:35;;;;;;;4.50;4.10;;;;;;;15.94;65.44;99043.40;130508;1268;109503;-80
2022/09/29 12:32:48;;;;;;;5.20;4.70;;;;;;;16.03;65.91;99041.27;130438;1268;109023;-80
2022/09/29 12:36:04;;;;;;;4.50;4.10;;;;;;;16.15;65.69;99040.39;130619;1267;108101;-80
2022/09/29 12:39:20;;;;;;;6.40;5.20;;;;;;;16.03;62.74;99046.52;130419;1268;108907;-80
2022/09/29 12:42:42;;;;;;;5.70;5.10;;;;;;;15.62;63.90;99051.23;130560;1267;108699;-80
2022/09/29 12:45:56;;;;;;;6.50;5.90;;;;;;;15.48;64.47;99044.39;130602;1267;108751;-80
2022/09/29 12:49:08;;;;;;;6.50;5.80;;;;;;;15.35;62.66;99053.47;130418;1268;108766;-80
2022/09/29 12:52:20;;;;;;;5.60;5.10;;;;;;;15.11;64.50;99053.02;130487;1268;108712;-80
2022/09/29 12:55:36;;;;;;;5.70;5.20;;;;;;;14.95;64.69;99055.47;130547;1268;108637;-79
2022/09/29 12:58:47;;;;;;;6.20;5.00;;;;;;;14.72;65.26;99062.71;130535;1268;108768;-79
2022/09/29 13:01:56;;;;;;;7.10;5.20;;;;;;;14.76;65.31;99057.75;130538;1267;108893;-79
2022/09/29 13:05:25;;;;;;;6.10;5.50;;;;;;;14.66;65.09;99059.29;130490;1267;108747;-82
2022/09/29 13:08:58;;;;;;;6.40;5.80;;;;;;;14.34;64.32;99062.06;130689;1267;108700;-79
2022/09/29 13:12:27;;;;;;;6.00;5.40;;;;;;;14.09;65.06;99063.86;130519;1267;109044;-79
2022/09/29 13:15:42;;;;;;;9.00;5.80;;;;;;;14.11;65.58;99068.41;130592;1267;108802;-80
2022/09/29 13:19:10;;;;;;;6.90;5.90;;;;;;;14.10;65.39;99069.52;130526;1266;108956;-80
2022/09/29 13:22:42;;;;;;;7.40;6.60;;;;;;;14.04;64.60;99070.27;130404;1268;109777;-79
2022/09/29 13:26:00;;;;;;;7.20;6.50;;;;;;;13.87;64.55;99074.94;130494;1268;108713;-79
2022/09/29 13:29:14;;;;;;;112.20;67.30;;;;;;;13.74;65.02;99082.08;130508;1267;108912;-79
2022/09/29 13:32:20;;;;;;;85.20;49.00;;;;;;;13.64;65.12;99084.77;130468;1266;107489;-80
2022/09/29 13:35:26;;;;;;;23.50;15.00;;;;;;;13.60;65.29;99086.42;130531;1267;108873;-79
2022/09/29 13:38:36;;;;;;;11.50;8.70;;;;;;;13.62;65.37;99086.42;130421;1268;108697;-79
2022/09/29 13:41:42;;;;;;;8.10;7.20;;;;;;;13.71;64.83;99087.61;130366;1267;109506;-78
2022/09/29 13:45:35;;;;;;;7.90;6.70;;;;;;;13.73;64.94;99090.83;130408;1268;108786;-78
2022/09/29 13:48:53;;;;;;;8.80;7.80;;;;;;;13.73;65.54;99094.67;130341;1267;108487;-79
2022/09/29 13:52:00;;;;;;;10.50;9.20;;;;;;;13.75;65.46;99093.14;130408;1268;108351;-78
2022/09/29 13:55:36;;;;;;;10.90;9.50;;;;;;;13.68;65.62;99097.48;130492;1268;109124;-79
2022/09/29 13:59:00;;;;;;;7.20;6.40;;;;;;;13.59;65.53;99097.59;130256;1270;108706;-80
2022/09/29 14:02:28;;;;;;;48.40;32.50;;;;;;;13.60;65.61;99101.14;130591;1267;109034;-80
2022/09/29 14:05:52;;;;;;;13.60;10.50;;;;;;;13.62;65.59;99104.05;130539;1267;108616;-80
2022/09/29 14:09:04;;;;;;;8.50;7.60;;;;;;;13.61;65.38;99107.90;130542;1267;108664;-80
2022/09/29 14:12:18;;;;;;;8.40;7.60;;;;;;;13.59;65.59;99110.70;130690;1267;108751;-80
2022/09/29 14:15:27;;;;;;;7.60;6.50;;;;;;;13.53;65.46;99109.20;130728;1268;108719;-82
2022/09/29 14:18:38;;;;;;;7.10;6.40;;;;;;;13.48;65.62;99114.61;130595;1268;107759;-81
2022/09/29 14:21:53;;;;;;;7.90;6.50;;;;;;;13.41;65.11;99115.75;130688;1268;109188;-81
2022/09/29 14:25:30;;;;;;;6.70;6.00;;;;;;;13.36;65.38;99117.40;130472;1268;108635;-75
2022/09/29 14:28:41;;;;;;;7.20;6.10;;;;;;;13.39;65.58;99121.52;130410;1268;108648;-77
2022/09/29 14:31:51;;;;;;;7.00;6.10;;;;;;;13.41;65.77;99124.85;130517;1267;108748;-78
2022/09/29 14:34:57;;;;;;;8.60;6.90;;;;;;;13.33;65.48;99128.45;130370;1268;108931;-78
2022/09/29 14:38:13;;;;;;;9.90;7.60;;;;;;;13.28;65.31;99126.99;130626;1266;108858;-79